Terminal Aerodrome Forecast
Issued by NWS Raleigh/Durham, NC

Home | Current Version | Previous Version | Text Only | Print | Product List | Glossary On
Versions: 1 2 3 4 5 6 7 8 9 10 11 12 13
000
FTUS42 KRAH 291120
TAFFAY
TAF
KFAY 291120Z 2912/3012 03006KT P6SM -RA BKN008 BKN035 OVC080
     FM291400 08006KT P6SM -SHRA OVC020
     FM291600 10006KT P6SM -SHRA BKN035 BKN100
      TEMPO 2917/2921 5SM -TSRA BR BKN025CB
     FM300400 01006KT 4SM BR VCSH BKN015 OVC080=

USA.gov is the U.S. government's official web portal to all federal, state and local government web resources and services.